sensor_id;sensor_type;location;lat;lon;timestamp;pressure;altitude;pressure_sealevel;temperature;humidity
61742;BME280;47650;49.848;9.620;2023-03-13T00:00:52;98922.13;;;10.09;63.80
61742;BME280;47650;49.848;9.620;2023-03-13T00:03:18;98986.94;;;10.31;64.60
61742;BME280;47650;49.848;9.620;2023-03-13T00:05:47;98958.66;;;10.40;64.23
61742;BME280;47650;49.848;9.620;2023-03-13T00:08:16;98831.03;;;9.59;64.18
61742;BME280;47650;49.848;9.620;2023-03-13T00:10:43;98962.47;;;10.03;64.99
61742;BME280;47650;49.848;9.620;2023-03-13T00:13:18;98972.28;;;10.37;64.35
61742;BME280;47650;49.848;9.620;2023-03-13T00:15:43;98956.56;;;10.17;64.79
61742;BME280;47650;49.848;9.620;2023-03-13T00:18:08;98892.38;;;9.54;65.29
61742;BME280;47650;49.848;9.620;2023-03-13T00:20:36;98972.03;;;10.30;64.78
61742;BME280;47650;49.848;9.620;2023-03-13T00:23:06;98968.38;;;10.31;64.70
61742;BME280;47650;49.848;9.620;2023-03-13T00:25:31;98951.25;;;10.17;65.20
61742;BME280;47650;49.848;9.620;2023-03-13T00:27:57;98915.16;;;10.08;65.30
61742;BME280;47650;49.848;9.620;2023-03-13T00:30:22;98919.19;;;9.86;65.73
61742;BME280;47650;49.848;9.620;2023-03-13T00:32:53;98962.78;;;10.00;66.06
61742;BME280;47650;49.848;9.620;2023-03-13T00:35:22;98946.88;;;10.00;65.88
61742;BME280;47650;49.848;9.620;2023-03-13T00:37:47;98927.97;;;9.86;66.29
61742;BME280;47650;49.848;9.620;2023-03-13T00:40:12;98873.25;;;9.69;65.35
61742;BME280;47650;49.848;9.620;2023-03-13T00:42:51;98934.34;;;9.75;67.39
61742;BME280;47650;49.848;9.620;2023-03-13T00:45:20;98922.78;;;10.11;66.00
61742;BME280;47650;49.848;9.620;2023-03-13T00:47:45;98906.03;;;9.68;66.74
61742;BME280;47650;49.848;9.620;2023-03-13T00:50:10;98926.44;;;10.18;65.59
61742;BME280;47650;49.848;9.620;2023-03-13T00:52:35;98943.25;;;10.01;66.29
61742;BME280;47650;49.848;9.620;2023-03-13T00:55:01;98907.72;;;10.11;65.52
61742;BME280;47650;49.848;9.620;2023-03-13T00:57:28;98910.81;;;9.98;66.23
61742;BME280;47650;49.848;9.620;2023-03-13T00:59:53;98920.66;;;9.80;67.37
61742;BME280;47650;49.848;9.620;2023-03-13T01:02:18;98918.84;;;10.23;66.24
61742;BME280;47650;49.848;9.620;2023-03-13T01:04:54;98905.38;;;10.00;66.38
61742;BME280;47650;49.848;9.620;2023-03-13T01:07:20;98897.22;;;10.02;66.44
61742;BME280;47650;49.848;9.620;2023-03-13T01:09:45;98903.44;;;9.76;67.07
61742;BME280;47650;49.848;9.620;2023-03-13T01:12:10;98902.25;;;9.78;67.17
61742;BME280;47650;49.848;9.620;2023-03-13T01:14:42;98883.31;;;10.00;66.39
61742;BME280;47650;49.848;9.620;2023-03-13T01:17:07;98765.50;;;9.18;66.40
61742;BME280;47650;49.848;9.620;2023-03-13T01:19:33;98851.41;;;9.67;65.94
61742;BME280;47650;49.848;9.620;2023-03-13T01:21:58;98865.81;;;9.72;66.68
61742;BME280;47650;49.848;9.620;2023-03-13T01:24:24;98880.69;;;10.00;66.51
61742;BME280;47650;49.848;9.620;2023-03-13T01:26:54;98853.28;;;9.74;66.39
61742;BME280;47650;49.848;9.620;2023-03-13T01:29:20;98876.56;;;10.05;66.13
61742;BME280;47650;49.848;9.620;2023-03-13T01:31:45;98862.91;;;10.26;64.57
61742;BME280;47650;49.848;9.620;2023-03-13T01:34:12;98814.16;;;10.03;64.68
61742;BME280;47650;49.848;9.620;2023-03-13T01:36:46;98873.94;;;10.64;63.50
61742;BME280;47650;49.848;9.620;2023-03-13T01:39:20;98845.75;;;10.39;63.38
61742;BME280;47650;49.848;9.620;2023-03-13T01:41:47;98855.66;;;10.45;64.08
61742;BME280;47650;49.848;9.620;2023-03-13T01:44:23;98851.88;;;10.64;62.93
61742;BME280;47650;49.848;9.620;2023-03-13T01:46:58;98852.34;;;10.43;63.30
61742;BME280;47650;49.848;9.620;2023-03-13T01:49:28;98843.63;;;10.50;62.65
61742;BME280;47650;49.848;9.620;2023-03-13T01:52:07;98823.91;;;10.61;62.49
61742;BME280;47650;49.848;9.620;2023-03-13T01:54:41;98775.63;;;10.25;62.62
61742;BME280;47650;49.848;9.620;2023-03-13T01:57:39;98817.44;;;10.64;62.14
61742;BME280;47650;49.848;9.620;2023-03-13T02:00:08;98830.50;;;10.65;62.41
61742;BME280;47650;49.848;9.620;2023-03-13T02:02:37;98820.75;;;10.74;62.36
61742;BME280;47650;49.848;9.620;2023-03-13T02:05:05;98830.50;;;10.65;61.73
61742;BME280;47650;49.848;9.620;2023-03-13T02:07:38;98693.66;;;10.07;61.99
61742;BME280;47650;49.848;9.620;2023-03-13T02:10:05;98805.69;;;10.75;61.43
61742;BME280;47650;49.848;9.620;2023-03-13T02:12:36;98808.81;;;10.86;61.68
61742;BME280;47650;49.848;9.620;2023-03-13T02:15:11;98790.44;;;10.77;61.64
61742;BME280;47650;49.848;9.620;2023-03-13T02:17:39;98740.06;;;10.60;61.00
61742;BME280;47650;49.848;9.620;2023-03-13T02:20:17;98797.38;;;10.78;61.44
61742;BME280;47650;49.848;9.620;2023-03-13T02:27:50;98754.28;;;10.67;61.69
61742;BME280;47650;49.848;9.620;2023-03-13T02:30:18;98759.59;;;10.67;61.63
61742;BME280;47650;49.848;9.620;2023-03-13T02:32:45;98780.75;;;11.08;61.03
61742;BME280;47650;49.848;9.620;2023-03-13T02:35:13;98778.31;;;10.90;61.17
61742;BME280;47650;49.848;9.620;2023-03-13T02:37:41;98755.47;;;10.40;61.64
61742;BME280;47650;49.848;9.620;2023-03-13T02:40:12;98752.31;;;10.53;62.14
61742;BME280;47650;49.848;9.620;2023-03-13T02:42:42;98746.69;;;10.40;62.42
61742;BME280;47650;49.848;9.620;2023-03-13T02:45:11;98720.53;;;10.37;61.81
61742;BME280;47650;49.848;9.620;2023-03-13T02:47:37;98744.06;;;10.64;61.51
61742;BME280;47650;49.848;9.620;2023-03-13T02:50:02;98695.00;;;10.11;62.70
61742;BME280;47650;49.848;9.620;2023-03-13T02:52:36;98754.97;;;10.69;62.00
61742;BME280;47650;49.848;9.620;2023-03-13T02:55:11;98746.34;;;10.76;61.74
61742;BME280;47650;49.848;9.620;2023-03-13T02:57:38;98745.03;;;10.55;62.88
61742;BME280;47650;49.848;9.620;2023-03-13T03:00:06;98743.00;;;10.24;64.42
61742;BME280;47650;49.848;9.620;2023-03-13T03:02:42;98729.44;;;10.19;65.00
61742;BME280;47650;49.848;9.620;2023-03-13T03:05:08;98748.97;;;10.18;65.64
61742;BME280;47650;49.848;9.620;2023-03-13T03:07:34;98729.03;;;9.73;66.94
61742;BME280;47650;49.848;9.620;2023-03-13T03:09:59;98725.28;;;9.92;67.93
61742;BME280;47650;49.848;9.620;2023-03-13T03:12:26;98735.09;;;9.57;69.72
61742;BME280;47650;49.848;9.620;2023-03-13T03:14:51;98747.53;;;9.65;69.67
61742;BME280;47650;49.848;9.620;2023-03-13T03:17:17;98737.56;;;9.58;71.26
61742;BME280;47650;49.848;9.620;2023-03-13T03:19:42;98726.91;;;9.34;73.10
61742;BME280;47650;49.848;9.620;2023-03-13T03:22:07;98738.13;;;9.28;74.11
61742;BME280;47650;49.848;9.620;2023-03-13T03:24:33;98735.41;;;9.11;75.72
61742;BME280;47650;49.848;9.620;2023-03-13T03:26:58;98736.03;;;9.05;76.12
61742;BME280;47650;49.848;9.620;2023-03-13T03:29:29;98727.06;;;8.98;76.78
61742;BME280;47650;49.848;9.620;2023-03-13T03:31:54;98738.50;;;8.80;78.38
61742;BME280;47650;49.848;9.620;2023-03-13T03:34:27;98738.50;;;8.80;78.63
61742;BME280;47650;49.848;9.620;2023-03-13T03:36:58;98725.22;;;8.64;79.09
61742;BME280;47650;49.848;9.620;2023-03-13T03:39:26;98726.31;;;8.79;81.58
61742;BME280;47650;49.848;9.620;2023-03-13T03:41:51;98729.81;;;8.62;81.38
61742;BME280;47650;49.848;9.620;2023-03-13T03:44:17;98568.50;;;7.67;81.68
61742;BME280;47650;49.848;9.620;2023-03-13T03:46:42;98652.88;;;8.21;83.07
61742;BME280;47650;49.848;9.620;2023-03-13T03:49:07;98703.75;;;8.67;83.02
61742;BME280;47650;49.848;9.620;2023-03-13T03:51:33;98709.13;;;8.57;83.46
61742;BME280;47650;49.848;9.620;2023-03-13T03:53:58;98681.91;;;8.57;83.94
61742;BME280;47650;49.848;9.620;2023-03-13T03:56:25;98673.53;;;8.70;84.23
61742;BME280;47650;49.848;9.620;2023-03-13T03:58:51;98642.13;;;8.40;83.67
61742;BME280;47650;49.848;9.620;2023-03-13T04:01:18;98690.94;;;8.80;86.11
61742;BME280;47650;49.848;9.620;2023-03-13T04:03:45;98682.19;;;8.80;86.40
61742;BME280;47650;49.848;9.620;2023-03-13T04:06:14;98673.75;;;8.76;85.59
61742;BME280;47650;49.848;9.620;2023-03-13T04:08:39;98678.38;;;8.74;85.75
61742;BME280;47650;49.848;9.620;2023-03-13T04:11:07;98652.84;;;8.65;85.38
61742;BME280;47650;49.848;9.620;2023-03-13T04:13:33;98634.03;;;8.42;83.20
61742;BME280;47650;49.848;9.620;2023-03-13T04:15:58;98627.09;;;8.41;82.86
61742;BME280;47650;49.848;9.620;2023-03-13T04:18:29;98681.16;;;8.73;83.48
61742;BME280;47650;49.848;9.620;2023-03-13T04:21:02;98680.34;;;8.72;82.67
61742;BME280;47650;49.848;9.620;2023-03-13T04:23:29;98657.13;;;8.58;83.45
61742;BME280;47650;49.848;9.620;2023-03-13T04:25:55;98656.81;;;8.61;83.00
61742;BME280;47650;49.848;9.620;2023-03-13T04:28:20;98649.88;;;8.42;82.96
61742;BME280;47650;49.848;9.620;2023-03-13T04:30:46;98677.19;;;8.69;83.97
61742;BME280;47650;49.848;9.620;2023-03-13T04:33:11;98646.53;;;8.50;84.50
61742;BME280;47650;49.848;9.620;2023-03-13T04:35:36;98658.13;;;8.39;84.71
61742;BME280;47650;49.848;9.620;2023-03-13T04:38:11;98674.50;;;8.42;85.29
61742;BME280;47650;49.848;9.620;2023-03-13T04:40:45;98592.72;;;8.06;85.82
61742;BME280;47650;49.848;9.620;2023-03-13T04:43:15;98642.66;;;8.70;87.58
61742;BME280;47650;49.848;9.620;2023-03-13T04:45:41;98646.19;;;8.53;86.80
61742;BME280;47650;49.848;9.620;2023-03-13T04:48:06;98566.72;;;8.20;90.01
61742;BME280;47650;49.848;9.620;2023-03-13T04:50:33;98580.94;;;8.19;89.50
61742;BME280;47650;49.848;9.620;2023-03-13T04:55:27;98647.06;;;8.61;88.50
61742;BME280;47650;49.848;9.620;2023-03-13T04:57:52;98599.41;;;8.71;90.34
61742;BME280;47650;49.848;9.620;2023-03-13T05:00:21;98641.59;;;8.89;90.56
61742;BME280;47650;49.848;9.620;2023-03-13T05:02:46;98623.56;;;8.84;90.36
61742;BME280;47650;49.848;9.620;2023-03-13T05:05:13;98622.94;;;8.91;90.16
61742;BME280;47650;49.848;9.620;2023-03-13T05:07:45;98640.19;;;9.11;90.98
61742;BME280;47650;49.848;9.620;2023-03-13T05:10:10;98617.91;;;8.71;90.90
61742;BME280;47650;49.848;9.620;2023-03-13T05:12:42;98636.19;;;8.99;91.43
61742;BME280;47650;49.848;9.620;2023-03-13T05:15:10;98629.78;;;8.75;93.38
61742;BME280;47650;49.848;9.620;2023-03-13T05:17:36;98522.31;;;8.15;93.42
61742;BME280;47650;49.848;9.620;2023-03-13T05:20:04;98600.50;;;8.60;94.03
61742;BME280;47650;49.848;9.620;2023-03-13T05:22:37;98627.56;;;8.89;94.27
61742;BME280;47650;49.848;9.620;2023-03-13T05:25:04;98622.56;;;8.85;94.92
61742;BME280;47650;49.848;9.620;2023-03-13T05:27:45;98630.91;;;8.99;95.87
61742;BME280;47650;49.848;9.620;2023-03-13T05:30:17;98512.84;;;8.31;94.96
61742;BME280;47650;49.848;9.620;2023-03-13T05:32:44;98608.94;;;8.98;96.22
61742;BME280;47650;49.848;9.620;2023-03-13T05:35:09;98591.34;;;8.46;96.45
61742;BME280;47650;49.848;9.620;2023-03-13T05:37:34;98535.22;;;8.53;97.69
61742;BME280;47650;49.848;9.620;2023-03-13T05:40:01;98608.53;;;9.28;97.39
61742;BME280;47650;49.848;9.620;2023-03-13T05:42:34;98554.63;;;8.70;97.79
61742;BME280;47650;49.848;9.620;2023-03-13T05:44:59;98602.50;;;9.09;97.19
61742;BME280;47650;49.848;9.620;2023-03-13T05:47:26;98613.41;;;9.06;98.40
61742;BME280;47650;49.848;9.620;2023-03-13T05:49:53;98606.47;;;9.13;98.30
61742;BME280;47650;49.848;9.620;2023-03-13T05:52:18;98549.22;;;8.79;97.90
61742;BME280;47650;49.848;9.620;2023-03-13T05:54:45;98583.72;;;9.20;97.98
61742;BME280;47650;49.848;9.620;2023-03-13T05:57:10;98577.13;;;9.41;98.63
61742;BME280;47650;49.848;9.620;2023-03-13T05:59:46;98589.66;;;9.31;99.20
61742;BME280;47650;49.848;9.620;2023-03-13T06:02:11;98586.41;;;9.45;100.00
61742;BME280;47650;49.848;9.620;2023-03-13T06:04:38;98567.84;;;9.29;99.58
61742;BME280;47650;49.848;9.620;2023-03-13T06:07:04;98563.50;;;9.11;99.19
61742;BME280;47650;49.848;9.620;2023-03-13T06:09:31;98560.56;;;9.31;99.60
61742;BME280;47650;49.848;9.620;2023-03-13T06:11:57;98571.81;;;9.41;100.00
61742;BME280;47650;49.848;9.620;2023-03-13T06:14:25;98554.78;;;9.27;99.73
61742;BME280;47650;49.848;9.620;2023-03-13T06:16:53;98584.72;;;9.36;98.74
61742;BME280;47650;49.848;9.620;2023-03-13T06:19:19;98572.19;;;9.54;99.11
61742;BME280;47650;49.848;9.620;2023-03-13T06:21:46;98570.53;;;9.53;99.30
61742;BME280;47650;49.848;9.620;2023-03-13T06:24:12;98511.63;;;9.18;99.26
61742;BME280;47650;49.848;9.620;2023-03-13T06:26:38;98588.09;;;9.71;100.00
61742;BME280;47650;49.848;9.620;2023-03-13T06:29:04;98553.00;;;9.60;98.70
61742;BME280;47650;49.848;9.620;2023-03-13T06:31:31;62682.47;;;-146.85;100.00
61742;BME280;47650;49.848;9.620;2023-03-13T06:33:57;62682.47;;;-146.85;100.00
61742;BME280;47650;49.848;9.620;2023-03-13T06:36:23;62682.47;;;-146.85;100.00
61742;BME280;47650;49.848;9.620;2023-03-13T06:38:54;62682.47;;;-146.85;100.00
61742;BME280;47650;49.848;9.620;2023-03-13T06:41:28;62682.47;;;-146.85;100.00
61742;BME280;47650;49.848;9.620;2023-03-13T06:43:54;62682.47;;;-146.85;100.00
61742;BME280;47650;49.848;9.620;2023-03-13T06:46:22;62682.47;;;-146.85;100.00
61742;BME280;47650;49.848;9.620;2023-03-13T06:48:49;62682.47;;;-146.85;100.00
61742;BME280;47650;49.848;9.620;2023-03-13T06:51:18;62682.47;;;-146.85;100.00
61742;BME280;47650;49.848;9.620;2023-03-13T06:53:44;62682.47;;;-146.85;100.00
61742;BME280;47650;49.848;9.620;2023-03-13T06:56:11;62682.47;;;-146.85;100.00
61742;BME280;47650;49.848;9.620;2023-03-13T06:58:38;62682.47;;;-146.85;100.00
61742;BME280;47650;49.848;9.620;2023-03-13T07:01:08;62682.47;;;-146.85;100.00
61742;BME280;47650;49.848;9.620;2023-03-13T07:03:35;62682.47;;;-146.85;100.00
61742;BME280;47650;49.848;9.620;2023-03-13T07:06:00;62682.47;;;-146.85;100.00
61742;BME280;47650;49.848;9.620;2023-03-13T07:08:28;62682.47;;;-146.85;100.00
61742;BME280;47650;49.848;9.620;2023-03-13T07:10:57;62682.47;;;-146.85;100.00
61742;BME280;47650;49.848;9.620;2023-03-13T07:13:23;62682.47;;;-146.85;100.00
61742;BME280;47650;49.848;9.620;2023-03-13T07:15:51;98515.19;;;10.32;96.29
61742;BME280;47650;49.848;9.620;2023-03-13T07:18:17;98541.31;;;10.52;95.82
61742;BME280;47650;49.848;9.620;2023-03-13T07:20:43;98491.34;;;10.32;96.18
61742;BME280;47650;49.848;9.620;2023-03-13T07:23:08;98502.25;;;10.38;95.25
61742;BME280;47650;49.848;9.620;2023-03-13T07:25:35;98553.06;;;10.89;95.30
61742;BME280;47650;49.848;9.620;2023-03-13T07:28:00;98550.78;;;10.78;94.87
61742;BME280;47650;49.848;9.620;2023-03-13T07:30:27;98541.06;;;11.01;95.97
61742;BME280;47650;49.848;9.620;2023-03-13T07:32:53;98527.31;;;10.75;93.57
61742;BME280;47650;49.848;9.620;2023-03-13T07:35:19;98542.44;;;10.97;93.80
61742;BME280;47650;49.848;9.620;2023-03-13T07:37:46;98522.03;;;10.98;93.71
61742;BME280;47650;49.848;9.620;2023-03-13T07:40:11;98512.72;;;11.02;93.75
61742;BME280;47650;49.848;9.620;2023-03-13T07:42:40;98531.03;;;11.20;93.52
61742;BME280;47650;49.848;9.620;2023-03-13T07:45:06;98518.34;;;11.30;92.36
61742;BME280;47650;49.848;9.620;2023-03-13T07:47:35;98534.16;;;11.23;90.70
61742;BME280;47650;49.848;9.620;2023-03-13T07:50:00;98526.78;;;11.57;90.60
61742;BME280;47650;49.848;9.620;2023-03-13T07:52:26;98522.53;;;11.47;88.50
61742;BME280;47650;49.848;9.620;2023-03-13T07:54:52;98509.41;;;11.69;88.46
61742;BME280;47650;49.848;9.620;2023-03-13T07:57:20;98515.66;;;12.14;87.57
61742;BME280;47650;49.848;9.620;2023-03-13T07:59:45;98519.69;;;11.72;86.08
61742;BME280;47650;49.848;9.620;2023-03-13T08:02:11;98517.13;;;12.32;86.01
61742;BME280;47650;49.848;9.620;2023-03-13T08:04:40;98522.13;;;11.97;85.99
61742;BME280;47650;49.848;9.620;2023-03-13T08:07:14;98522.69;;;12.07;85.55
61742;BME280;47650;49.848;9.620;2023-03-13T08:09:41;98461.16;;;11.65;84.78
61742;BME280;47650;49.848;9.620;2023-03-13T08:12:06;98512.25;;;12.06;83.38
61742;BME280;47650;49.848;9.620;2023-03-13T08:14:32;98522.25;;;12.33;82.31
61742;BME280;47650;49.848;9.620;2023-03-13T08:16:57;98474.88;;;12.37;83.57
61742;BME280;47650;49.848;9.620;2023-03-13T08:19:23;98507.47;;;12.75;80.24
61742;BME280;47650;49.848;9.620;2023-03-13T08:21:55;98508.19;;;12.84;81.10
61742;BME280;47650;49.848;9.620;2023-03-13T08:24:39;98511.09;;;12.53;80.98
61742;BME280;47650;49.848;9.620;2023-03-13T08:27:06;98510.31;;;13.10;81.01
61742;BME280;47650;49.848;9.620;2023-03-13T08:29:32;98528.41;;;12.64;79.54
61742;BME280;47650;49.848;9.620;2023-03-13T08:31:58;98523.44;;;12.60;80.29
61742;BME280;47650;49.848;9.620;2023-03-13T08:34:30;98515.00;;;12.72;79.71
61742;BME280;47650;49.848;9.620;2023-03-13T08:36:55;98511.50;;;12.71;79.20
61742;BME280;47650;49.848;9.620;2023-03-13T08:39:22;98517.22;;;13.05;78.98
61742;BME280;47650;49.848;9.620;2023-03-13T08:41:49;98521.31;;;12.71;79.42
61742;BME280;47650;49.848;9.620;2023-03-13T08:44:17;98475.56;;;12.60;78.65
61742;BME280;47650;49.848;9.620;2023-03-13T08:46:43;98508.25;;;13.27;77.86
61742;BME280;47650;49.848;9.620;2023-03-13T08:49:11;98491.75;;;13.17;77.51
61742;BME280;47650;49.848;9.620;2023-03-13T08:51:44;98491.19;;;12.85;77.63
61742;BME280;47650;49.848;9.620;2023-03-13T08:54:09;98509.91;;;12.92;77.68
61742;BME280;47650;49.848;9.620;2023-03-13T08:56:35;98516.72;;;13.16;76.70
61742;BME280;47650;49.848;9.620;2023-03-13T08:59:09;98517.50;;;13.31;76.07
61742;BME280;47650;49.848;9.620;2023-03-13T09:01:35;98516.56;;;13.61;75.07
61742;BME280;47650;49.848;9.620;2023-03-13T09:04:06;98498.09;;;13.81;74.96
61742;BME280;47650;49.848;9.620;2023-03-13T09:06:34;98509.75;;;13.58;74.67
61742;BME280;47650;49.848;9.620;2023-03-13T09:09:06;98514.38;;;13.28;74.95
61742;BME280;47650;49.848;9.620;2023-03-13T09:11:33;98523.59;;;13.47;75.07
61742;BME280;47650;49.848;9.620;2023-03-13T09:13:58;98515.88;;;13.52;74.88
61742;BME280;47650;49.848;9.620;2023-03-13T09:16:28;98470.22;;;13.33;74.59
61742;BME280;47650;49.848;9.620;2023-03-13T09:18:55;98521.09;;;13.24;75.42
61742;BME280;47650;49.848;9.620;2023-03-13T09:21:24;98510.91;;;13.49;75.51
61742;BME280;47650;49.848;9.620;2023-03-13T09:23:50;98514.69;;;13.18;76.13
61742;BME280;47650;49.848;9.620;2023-03-13T09:26:17;98511.09;;;13.69;74.45
61742;BME280;47650;49.848;9.620;2023-03-13T09:28:43;98487.84;;;14.13;72.35
61742;BME280;47650;49.848;9.620;2023-03-13T09:31:18;98484.69;;;14.02;72.91
61742;BME280;47650;49.848;9.620;2023-03-13T09:33:45;98478.28;;;13.68;73.32
61742;BME280;47650;49.848;9.620;2023-03-13T09:36:11;98486.94;;;14.34;71.00
61742;BME280;47650;49.848;9.620;2023-03-13T09:38:38;98485.06;;;14.34;71.58
61742;BME280;47650;49.848;9.620;2023-03-13T09:41:31;98389.75;;;13.31;71.48
61742;BME280;47650;49.848;9.620;2023-03-13T09:44:11;98486.03;;;14.20;71.52
61742;BME280;47650;49.848;9.620;2023-03-13T09:46:43;98503.09;;;13.97;71.09
61742;BME280;47650;49.848;9.620;2023-03-13T09:49:18;98484.31;;;14.05;72.21
61742;BME280;47650;49.848;9.620;2023-03-13T09:52:01;98488.31;;;13.88;71.97
61742;BME280;47650;49.848;9.620;2023-03-13T09:54:37;98491.50;;;14.11;71.49
61742;BME280;47650;49.848;9.620;2023-03-13T10:00:06;98493.91;;;13.71;74.28
61742;BME280;47650;49.848;9.620;2023-03-13T10:02:46;98487.75;;;13.71;74.08
61742;BME280;47650;49.848;9.620;2023-03-13T10:05:24;98465.19;;;13.95;72.31
61742;BME280;47650;49.848;9.620;2023-03-13T10:08:27;98469.69;;;13.95;71.65
61742;BME280;47650;49.848;9.620;2023-03-13T10:11:27;98472.84;;;14.11;71.69
61742;BME280;47650;49.848;9.620;2023-03-13T10:14:03;98467.44;;;14.33;69.37
61742;BME280;47650;49.848;9.620;2023-03-13T10:16:47;98449.69;;;14.54;68.39
61742;BME280;47650;49.848;9.620;2023-03-13T10:19:18;98457.47;;;14.48;69.00
61742;BME280;47650;49.848;9.620;2023-03-13T10:21:50;98436.13;;;14.48;67.22
61742;BME280;47650;49.848;9.620;2023-03-13T10:24:29;98432.00;;;15.74;64.29
61742;BME280;47650;49.848;9.620;2023-03-13T10:26:56;98430.19;;;15.35;64.26
61742;BME280;47650;49.848;9.620;2023-03-13T10:29:27;98430.56;;;15.65;63.67
61742;BME280;47650;49.848;9.620;2023-03-13T10:32:00;98416.81;;;15.48;65.20
61742;BME280;47650;49.848;9.620;2023-03-13T10:34:58;98419.69;;;15.13;64.88
61742;BME280;47650;49.848;9.620;2023-03-13T10:37:45;98411.25;;;15.83;62.32
61742;BME280;47650;49.848;9.620;2023-03-13T10:42:44;98415.81;;;15.63;63.36
61742;BME280;47650;49.848;9.620;2023-03-13T10:45:14;98410.22;;;16.56;60.08
61742;BME280;47650;49.848;9.620;2023-03-13T10:47:40;98415.09;;;16.59;60.61
61742;BME280;47650;49.848;9.620;2023-03-13T10:50:23;98421.16;;;16.48;59.91
61742;BME280;47650;49.848;9.620;2023-03-13T10:52:53;98422.53;;;16.57;59.47
61742;BME280;47650;49.848;9.620;2023-03-13T10:55:21;98365.22;;;16.33;60.14
61742;BME280;47650;49.848;9.620;2023-03-13T10:57:57;98415.69;;;16.23;60.39
61742;BME280;47650;49.848;9.620;2023-03-13T11:03:18;98290.44;;;16.20;58.75
61742;BME280;47650;49.848;9.620;2023-03-13T11:05:58;98353.56;;;16.59;58.54
61742;BME280;47650;49.848;9.620;2023-03-13T11:08:28;98388.72;;;17.08;57.07
61742;BME280;47650;49.848;9.620;2023-03-13T11:11:01;98399.91;;;16.53;58.86
61742;BME280;47650;49.848;9.620;2023-03-13T11:13:39;98388.25;;;16.86;58.76
61742;BME280;47650;49.848;9.620;2023-03-13T11:16:25;98385.81;;;16.32;60.41
61742;BME280;47650;49.848;9.620;2023-03-13T11:27:26;98386.03;;;16.69;58.36
61742;BME280;47650;49.848;9.620;2023-03-13T11:30:19;98367.53;;;17.50;55.50
61742;BME280;47650;49.848;9.620;2023-03-13T11:32:59;98363.50;;;18.21;53.26
61742;BME280;47650;49.848;9.620;2023-03-13T11:35:36;98357.81;;;18.48;52.14
61742;BME280;47650;49.848;9.620;2023-03-13T11:41:25;98334.34;;;20.73;46.74
61742;BME280;47650;49.848;9.620;2023-03-13T11:44:28;98326.53;;;21.56;44.24
61742;BME280;47650;49.848;9.620;2023-03-13T11:47:17;98306.47;;;21.91;43.47
61742;BME280;47650;49.848;9.620;2023-03-13T11:49:53;98283.94;;;22.52;41.03
61742;BME280;47650;49.848;9.620;2023-03-13T11:55:43;98242.13;;;23.82;37.67
61742;BME280;47650;49.848;9.620;2023-03-13T12:01:15;98275.13;;;23.79;38.62
61742;BME280;47650;49.848;9.620;2023-03-13T12:04:10;98285.00;;;23.11;39.96
61742;BME280;47650;49.848;9.620;2023-03-13T12:07:05;98274.63;;;22.70;40.47
61742;BME280;47650;49.848;9.620;2023-03-13T12:12:58;98259.81;;;22.18;41.65
61742;BME280;47650;49.848;9.620;2023-03-13T12:15:44;98247.56;;;23.93;38.32
61742;BME280;47650;49.848;9.620;2023-03-13T12:21:04;98251.38;;;22.37;40.60
61742;BME280;47650;49.848;9.620;2023-03-13T12:26:19;98229.63;;;22.48;40.24
61742;BME280;47650;49.848;9.620;2023-03-13T12:31:25;98226.97;;;23.28;39.23
61742;BME280;47650;49.848;9.620;2023-03-13T12:36:50;98192.63;;;22.49;40.49
61742;BME280;47650;49.848;9.620;2023-03-13T12:44:58;98180.34;;;21.15;43.11
61742;BME280;47650;49.848;9.620;2023-03-13T12:47:34;98190.47;;;21.25;43.80
61742;BME280;47650;49.848;9.620;2023-03-13T12:52:44;98192.47;;;19.70;47.38
61742;BME280;47650;49.848;9.620;2023-03-13T12:55:31;98177.19;;;19.59;47.96
61742;BME280;47650;49.848;9.620;2023-03-13T12:58:15;98179.47;;;19.39;48.14
61742;BME280;47650;49.848;9.620;2023-03-13T13:00:43;98183.47;;;18.77;50.42
61742;BME280;47650;49.848;9.620;2023-03-13T13:03:35;98174.28;;;19.61;48.87
61742;BME280;47650;49.848;9.620;2023-03-13T13:06:15;98169.94;;;18.72;50.62
61742;BME280;47650;49.848;9.620;2023-03-13T13:16:41;98117.19;;;18.77;49.23
61742;BME280;47650;49.848;9.620;2023-03-13T13:24:55;98128.31;;;19.33;49.64
61742;BME280;47650;49.848;9.620;2023-03-13T13:29:55;98134.22;;;19.07;50.02
61742;BME280;47650;49.848;9.620;2023-03-13T13:37:39;98102.47;;;19.32;49.70
61742;BME280;47650;49.848;9.620;2023-03-13T13:40:19;98116.50;;;18.58;51.03
61742;BME280;47650;49.848;9.620;2023-03-13T13:43:17;98111.84;;;19.30;49.36
61742;BME280;47650;49.848;9.620;2023-03-13T13:48:38;98100.56;;;19.16;49.64
61742;BME280;47650;49.848;9.620;2023-03-13T14:01:46;98055.50;;;22.61;41.05
61742;BME280;47650;49.848;9.620;2023-03-13T14:06:43;98036.94;;;21.95;41.79
61742;BME280;47650;49.848;9.620;2023-03-13T14:09:26;97993.97;;;22.79;41.09
61742;BME280;47650;49.848;9.620;2023-03-13T14:11:55;98020.25;;;22.30;41.50
61742;BME280;47650;49.848;9.620;2023-03-13T14:14:21;97981.78;;;22.18;40.98
61742;BME280;47650;49.848;9.620;2023-03-13T14:16:56;97984.41;;;23.14;39.53
61742;BME280;47650;49.848;9.620;2023-03-13T14:19:26;97994.19;;;23.56;38.57
61742;BME280;47650;49.848;9.620;2023-03-13T14:22:04;97984.09;;;24.49;37.63
61742;BME280;47650;49.848;9.620;2023-03-13T14:24:30;97949.63;;;24.70;35.75
61742;BME280;47650;49.848;9.620;2023-03-13T14:26:56;97966.50;;;22.97;39.13
61742;BME280;47650;49.848;9.620;2023-03-13T14:29:21;97960.97;;;25.66;35.06
61742;BME280;47650;49.848;9.620;2023-03-13T14:31:57;97960.38;;;23.89;38.14
61742;BME280;47650;49.848;9.620;2023-03-13T14:34:24;97955.81;;;23.84;37.89
61742;BME280;47650;49.848;9.620;2023-03-13T14:36:51;97961.09;;;24.41;37.29
61742;BME280;47650;49.848;9.620;2023-03-13T14:39:35;97954.72;;;23.86;37.63
61742;BME280;47650;49.848;9.620;2023-03-13T14:42:18;97949.72;;;24.39;36.64
61742;BME280;47650;49.848;9.620;2023-03-13T14:44:46;97942.53;;;23.57;37.90
61742;BME280;47650;49.848;9.620;2023-03-13T14:47:25;97904.38;;;23.90;37.42
61742;BME280;47650;49.848;9.620;2023-03-13T14:49:59;97928.22;;;23.41;38.24
61742;BME280;47650;49.848;9.620;2023-03-13T14:52:27;97917.13;;;22.39;40.65